createdAt,value
2023-04-15T00:00:47.252Z,25
2023-04-15T00:01:54.844Z,30
2023-04-15T00:03:01.895Z,25
2023-04-15T00:04:11.870Z,31
2023-04-15T00:05:19.634Z,35
2023-04-15T00:06:27.692Z,25
2023-04-15T00:07:34.663Z,25
2023-04-15T00:08:44.732Z,25
2023-04-15T00:09:51.720Z,25
2023-04-15T00:10:58.663Z,25
2023-04-15T00:12:06.555Z,25
2023-04-15T00:13:13.509Z,25
2023-04-15T00:14:20.569Z,25
2023-04-15T00:15:27.563Z,29
2023-04-15T00:16:34.644Z,25
2023-04-15T00:17:41.599Z,35
2023-04-15T00:18:49.383Z,29
2023-04-15T00:19:56.375Z,34
2023-04-15T00:21:03.411Z,28
2023-04-15T00:22:10.444Z,26
2023-04-15T00:23:17.403Z,25
2023-04-15T00:24:24.340Z,25
2023-04-15T00:25:31.290Z,28
2023-04-15T00:26:39.423Z,28
2023-04-15T00:27:47.497Z,29
2023-04-15T00:28:54.400Z,25
2023-04-15T00:30:01.402Z,26
2023-04-15T00:31:08.639Z,32
2023-04-15T00:32:18.220Z,29
2023-04-15T00:33:25.052Z,26
2023-04-15T00:34:32.068Z,28
2023-04-15T00:35:39.043Z,28
2023-04-15T00:36:46.046Z,28
2023-04-15T00:37:55.786Z,30
2023-04-15T00:39:03.501Z,37
2023-04-15T00:40:10.410Z,26
2023-04-15T00:41:20.284Z,25
2023-04-15T00:42:27.185Z,25
2023-04-15T00:43:34.144Z,30
2023-04-15T00:44:41.210Z,35
2023-04-15T00:45:56.256Z,34
2023-04-15T00:47:03.200Z,33
2023-04-15T00:48:13.122Z,36
2023-04-15T00:49:20.901Z,28
2023-04-15T00:50:27.922Z,33
2023-04-15T00:51:34.876Z,27
2023-04-15T00:52:41.924Z,25
2023-04-15T00:53:48.771Z,32
2023-04-15T00:54:55.824Z,25
2023-04-15T00:56:02.920Z,35
2023-04-15T00:57:09.987Z,30
2023-04-15T00:58:19.769Z,26
2023-04-15T00:59:28.273Z,29
2023-04-15T01:00:35.200Z,27
2023-04-15T01:01:42.393Z,33
2023-04-15T01:02:49.519Z,29
2023-04-15T01:03:56.633Z,32
2023-04-15T01:05:08.547Z,30
2023-04-15T01:06:15.578Z,30
2023-04-15T01:07:22.525Z,28
2023-04-15T01:08:29.468Z,34
2023-04-15T01:09:36.421Z,28
2023-04-15T01:10:43.444Z,29
2023-04-15T01:11:50.355Z,34
2023-04-15T01:12:57.360Z,27
2023-04-15T01:14:04.622Z,31
2023-04-15T01:15:11.577Z,28
2023-04-15T01:16:18.685Z,30
2023-04-15T01:17:25.710Z,30
2023-04-15T01:18:32.621Z,32
2023-04-15T01:19:39.538Z,29
2023-04-15T01:20:46.452Z,30
2023-04-15T01:21:58.756Z,34
2023-04-15T01:23:05.651Z,30
2023-04-15T01:24:12.712Z,28
2023-04-15T01:25:19.620Z,31
2023-04-15T01:26:32.731Z,38
2023-04-15T01:27:42.649Z,36
2023-04-15T01:28:52.325Z,34
2023-04-15T01:30:00.158Z,43
2023-04-15T01:31:07.231Z,30
2023-04-15T01:32:14.146Z,39
2023-04-15T01:33:21.142Z,30
2023-04-15T01:34:30.521Z,31
2023-04-15T01:35:37.471Z,27
2023-04-15T01:36:44.455Z,27
2023-04-15T01:37:51.434Z,26
2023-04-15T01:38:58.541Z,25
2023-04-15T01:40:05.430Z,29
2023-04-15T01:41:15.399Z,28
2023-04-15T01:42:22.353Z,33
2023-04-15T01:43:29.419Z,35
2023-04-15T01:44:36.367Z,34
2023-04-15T01:45:43.290Z,41
2023-04-15T01:46:50.414Z,39
2023-04-15T01:47:57.351Z,37
2023-04-15T01:49:04.511Z,38
2023-04-15T01:50:11.453Z,33
2023-04-15T01:51:18.420Z,38
2023-04-15T01:52:26.771Z,25
2023-04-15T01:53:33.800Z,32
2023-04-15T01:54:40.911Z,31
2023-04-15T01:55:48.049Z,33
2023-04-15T01:56:54.968Z,32
2023-04-15T01:58:01.877Z,31
2023-04-15T01:59:08.804Z,33
2023-04-15T02:00:15.774Z,37
2023-04-15T02:01:22.860Z,40
2023-04-15T02:02:32.738Z,41
2023-04-15T02:03:39.673Z,49
2023-04-15T02:04:49.335Z,55
2023-04-15T02:05:58.842Z,56
2023-04-15T02:07:05.957Z,58
2023-04-15T02:08:12.857Z,65
2023-04-15T02:09:22.549Z,74
2023-04-15T02:10:30.324Z,74
2023-04-15T02:11:37.320Z,73
2023-04-15T02:12:44.225Z,79
2023-04-15T02:13:51.138Z,81
2023-04-15T02:14:58.098Z,80
2023-04-15T02:16:05.091Z,90
2023-04-15T02:17:19.917Z,86
2023-04-15T02:18:26.894Z,79
2023-04-15T02:19:33.787Z,78
2023-04-15T02:20:40.744Z,74
2023-04-15T02:21:48.474Z,67
2023-04-15T02:22:55.534Z,67
2023-04-15T02:24:02.533Z,68
2023-04-15T02:25:09.587Z,65
2023-04-15T02:26:16.570Z,70
2023-04-15T02:27:26.467Z,75
2023-04-15T02:28:33.494Z,72
2023-04-15T02:29:40.599Z,68
2023-04-15T02:30:50.439Z,66
2023-04-15T02:31:57.418Z,59
2023-04-15T02:33:04.299Z,65
2023-04-15T02:34:12.827Z,68
2023-04-15T02:35:20.452Z,69
2023-04-15T02:36:27.496Z,71
2023-04-15T02:37:35.328Z,67
2023-04-15T02:38:45.036Z,69
2023-04-15T02:39:52.922Z,72
2023-04-15T02:40:59.807Z,72
2023-04-15T02:42:06.707Z,79
2023-04-15T02:43:13.678Z,86
2023-04-15T02:44:20.571Z,87
2023-04-15T02:45:27.561Z,85
2023-04-15T02:46:34.544Z,82
2023-04-15T02:47:43.725Z,95
2023-04-15T02:48:50.661Z,98
2023-04-15T02:50:00.375Z,99
2023-04-15T02:51:10.481Z,104
2023-04-15T02:52:20.341Z,101
2023-04-15T02:53:27.261Z,98
2023-04-15T02:54:37.161Z,99
2023-04-15T02:55:44.129Z,103
2023-04-15T02:56:53.917Z,97
2023-04-15T02:58:00.823Z,98
2023-04-15T02:59:07.978Z,100
2023-04-15T03:00:14.887Z,105
2023-04-15T03:01:21.903Z,103
2023-04-15T03:02:28.893Z,99
2023-04-15T03:03:41.633Z,105
2023-04-15T03:04:48.583Z,108
2023-04-15T03:05:55.609Z,103
2023-04-15T03:07:02.688Z,108
2023-04-15T03:08:09.663Z,109
2023-04-15T03:09:16.626Z,110
2023-04-15T03:10:23.525Z,114
2023-04-15T03:11:30.534Z,116
2023-04-15T03:12:38.194Z,116
2023-04-15T03:13:45.204Z,112
2023-04-15T03:14:52.181Z,117
2023-04-15T03:15:59.181Z,122
2023-04-15T03:17:09.499Z,114
2023-04-15T03:18:16.527Z,113
2023-04-15T03:19:23.463Z,123
2023-04-15T03:20:30.640Z,111
2023-04-15T03:21:37.713Z,113
2023-04-15T03:22:44.690Z,116
2023-04-15T03:23:52.523Z,118
2023-04-15T03:25:02.372Z,121
2023-04-15T03:26:16.963Z,117
2023-04-15T03:27:31.678Z,118
2023-04-15T03:28:39.445Z,117
2023-04-15T03:29:46.415Z,117
2023-04-15T03:30:53.342Z,119
2023-04-15T03:32:04.147Z,112
2023-04-15T03:33:11.098Z,123
2023-04-15T03:34:18.039Z,125
2023-04-15T03:35:24.939Z,114
2023-04-15T03:36:32.004Z,114
2023-04-15T03:37:38.962Z,124
2023-04-15T03:38:45.947Z,119
2023-04-15T03:39:52.845Z,115
2023-04-15T03:40:59.845Z,120
2023-04-15T03:42:06.796Z,115
2023-04-15T03:43:13.893Z,116
2023-04-15T03:44:20.875Z,119
2023-04-15T03:45:27.812Z,122
2023-04-15T03:46:35.888Z,113
2023-04-15T03:47:46.342Z,123
2023-04-15T03:48:54.557Z,123
2023-04-15T03:50:05.365Z,124
2023-04-15T03:51:15.842Z,120
2023-04-15T03:52:22.816Z,120
2023-04-15T03:53:32.828Z,118
2023-04-15T03:54:39.741Z,117
2023-04-15T03:55:46.730Z,119
2023-04-15T03:56:55.291Z,116
2023-04-15T03:58:02.259Z,119
2023-04-15T03:59:09.176Z,116
2023-04-15T04:00:16.112Z,111
2023-04-15T04:01:26.179Z,123
2023-04-15T04:02:33.111Z,116
2023-04-15T04:03:40.197Z,122
2023-04-15T04:04:47.130Z,126
2023-04-15T04:05:56.403Z,115
2023-04-15T04:07:04.131Z,119
2023-04-15T04:08:11.079Z,115
2023-04-15T04:09:17.996Z,121
2023-04-15T04:10:24.959Z,121
2023-04-15T04:11:31.929Z,120
2023-04-15T04:12:38.960Z,121
2023-04-15T04:13:47.220Z,120
2023-04-15T04:14:54.597Z,120
2023-04-15T04:16:02.385Z,119
2023-04-15T04:17:09.348Z,115
2023-04-15T04:18:16.239Z,118
2023-04-15T04:19:23.362Z,119
2023-04-15T04:20:30.248Z,119
2023-04-15T04:21:37.175Z,117
2023-04-15T04:22:44.123Z,120
2023-04-15T04:23:51.078Z,117
2023-04-15T04:24:57.992Z,116
2023-04-15T04:26:06.975Z,115
2023-04-15T04:27:14.004Z,119
2023-04-15T04:28:21.316Z,109
2023-04-15T04:29:28.196Z,107
2023-04-15T04:30:35.090Z,110
2023-04-15T04:31:42.177Z,105
2023-04-15T04:32:49.138Z,111
2023-04-15T04:33:57.087Z,109
2023-04-15T04:35:03.993Z,104
2023-04-15T04:36:13.149Z,108
2023-04-15T04:37:20.054Z,108
2023-04-15T04:38:27.897Z,105
2023-04-15T04:39:34.981Z,104
2023-04-15T04:40:42.077Z,109
2023-04-15T04:41:48.993Z,104
2023-04-15T04:42:58.533Z,108
2023-04-15T04:44:05.502Z,113
2023-04-15T04:45:12.496Z,107
2023-04-15T04:46:19.615Z,109
2023-04-15T04:47:26.517Z,114
2023-04-15T04:48:33.523Z,111
2023-04-15T04:49:45.573Z,112
2023-04-15T04:50:53.356Z,110
2023-04-15T04:52:01.453Z,112
2023-04-15T04:53:08.353Z,107
2023-04-15T04:54:15.291Z,111
2023-04-15T04:55:23.195Z,118
2023-04-15T04:56:33.011Z,114
2023-04-15T04:57:39.976Z,113
2023-04-15T04:58:47.043Z,116
2023-04-15T04:59:53.980Z,115
2023-04-15T05:01:08.426Z,135
2023-04-15T05:02:15.535Z,127
2023-04-15T05:03:23.555Z,118
2023-04-15T05:04:30.422Z,113
2023-04-15T05:05:37.332Z,110
2023-04-15T05:06:45.333Z,112
2023-04-15T05:07:56.295Z,112
2023-04-15T05:09:03.625Z,115
2023-04-15T05:10:10.447Z,113
2023-04-15T05:11:17.828Z,110
2023-04-15T05:12:24.793Z,111
2023-04-15T05:13:31.734Z,111
2023-04-15T05:14:41.408Z,113
2023-04-15T05:15:48.556Z,109
2023-04-15T05:16:55.514Z,114
2023-04-15T05:18:02.586Z,117
2023-04-15T05:19:13.177Z,107
2023-04-15T05:20:20.142Z,111
2023-04-15T05:21:28.039Z,104
2023-04-15T05:22:34.997Z,104
2023-04-15T05:23:42.093Z,101
2023-04-15T05:24:49.059Z,109
2023-04-15T05:25:57.065Z,103
2023-04-15T05:27:04.039Z,109
2023-04-15T05:28:10.974Z,100
2023-04-15T05:29:20.977Z,107
2023-04-15T05:30:27.912Z,106
2023-04-15T05:31:37.840Z,108
2023-04-15T05:32:44.957Z,111
2023-04-15T05:33:51.935Z,108
2023-04-15T05:34:59.031Z,106
2023-04-15T05:36:05.848Z,110
2023-04-15T05:37:12.911Z,109
2023-04-15T05:38:19.896Z,109
2023-04-15T05:39:26.970Z,105
2023-04-15T05:40:36.547Z,108
2023-04-15T05:41:43.555Z,113
2023-04-15T05:42:53.550Z,110
2023-04-15T05:44:00.582Z,119
2023-04-15T05:45:11.440Z,116
2023-04-15T05:46:18.457Z,106
2023-04-15T05:47:25.494Z,120
2023-04-15T05:48:32.297Z,118
2023-04-15T05:49:39.396Z,113
2023-04-15T05:50:48.900Z,119
2023-04-15T05:51:57.668Z,118
2023-04-15T05:53:04.641Z,111
2023-04-15T05:54:11.600Z,115
2023-04-15T05:55:18.547Z,115
2023-04-15T05:56:25.586Z,111
2023-04-15T05:57:32.659Z,102
2023-04-15T05:58:39.664Z,98
2023-04-15T05:59:46.606Z,100
2023-04-15T06:00:53.586Z,90
2023-04-15T06:02:00.570Z,92
2023-04-15T06:03:07.564Z,92
2023-04-15T06:04:14.573Z,80
2023-04-15T06:05:21.475Z,83
2023-04-15T06:06:28.419Z,78
2023-04-15T06:07:35.378Z,65
2023-04-15T06:08:45.084Z,67
2023-04-15T06:09:52.738Z,55
2023-04-15T06:10:59.882Z,62
2023-04-15T06:12:07.091Z,52
2023-04-15T06:13:14.053Z,41
2023-04-15T06:14:21.093Z,43
2023-04-15T06:15:28.976Z,55
2023-04-15T06:16:36.216Z,41
2023-04-15T06:17:43.334Z,45
2023-04-15T06:18:53.014Z,25
2023-04-15T06:20:00.043Z,25
2023-04-15T06:21:07.142Z,40
2023-04-15T06:22:14.186Z,28
2023-04-15T06:23:26.393Z,31
2023-04-15T06:24:32.228Z,26
2023-04-15T06:25:41.996Z,26
2023-04-15T06:26:49.053Z,40
2023-04-15T06:27:56.091Z,30
2023-04-15T06:29:03.299Z,44
2023-04-15T06:30:12.928Z,60
2023-04-15T06:31:19.912Z,55
2023-04-15T06:32:28.022Z,47
2023-04-15T06:33:35.429Z,27
2023-04-15T06:34:44.039Z,33
2023-04-15T06:35:51.226Z,25
2023-04-15T06:36:58.248Z,29
2023-04-15T06:38:05.508Z,25
2023-04-15T06:39:12.719Z,36
2023-04-15T06:40:19.692Z,28
2023-04-15T06:41:26.734Z,29
2023-04-15T06:42:33.852Z,25
2023-04-15T06:43:40.851Z,28
2023-04-15T06:44:47.816Z,30
2023-04-15T06:45:54.775Z,30
2023-04-15T06:47:01.641Z,32
2023-04-15T06:48:08.522Z,33
2023-04-15T06:49:15.255Z,25
2023-04-15T06:50:22.062Z,32
2023-04-15T06:51:28.904Z,25
2023-04-15T06:52:35.851Z,32
2023-04-15T06:53:42.822Z,25
2023-04-15T06:54:49.851Z,25
2023-04-15T06:55:56.842Z,42
2023-04-15T06:57:03.788Z,48
2023-04-15T06:58:10.554Z,48
2023-04-15T06:59:17.332Z,25
2023-04-15T07:00:24.171Z,25
2023-04-15T07:01:31.029Z,32
2023-04-15T07:02:37.883Z,45
2023-04-15T07:03:44.599Z,35
2023-04-15T07:04:51.491Z,26
2023-04-15T07:05:58.427Z,28
2023-04-15T07:07:05.242Z,36
2023-04-15T07:08:12.065Z,36
2023-04-15T07:09:18.904Z,25
2023-04-15T07:10:25.833Z,25
2023-04-15T07:11:32.743Z,33
2023-04-15T07:12:39.466Z,45
2023-04-15T07:13:46.226Z,29
2023-04-15T07:14:53.012Z,32
2023-04-15T07:15:59.779Z,25
2023-04-15T07:17:06.722Z,27
2023-04-15T07:18:13.420Z,29
2023-04-15T07:19:20.216Z,31
2023-04-15T07:20:27.028Z,36
2023-04-15T07:21:33.775Z,37
2023-04-15T07:22:40.623Z,25
2023-04-15T07:23:47.366Z,33
2023-04-15T07:24:54.228Z,50
2023-04-15T07:26:01.040Z,35
2023-04-15T07:27:07.926Z,25
2023-04-15T07:28:14.710Z,26
2023-04-15T07:29:21.476Z,25
2023-04-15T07:30:28.219Z,33
2023-04-15T07:31:35.035Z,25
2023-04-15T07:32:41.807Z,27
2023-04-15T07:33:48.707Z,40
2023-04-15T07:34:55.440Z,25
2023-04-15T07:36:02.274Z,31
2023-04-15T07:37:09.147Z,31
2023-04-15T07:38:15.980Z,64
2023-04-15T07:39:22.870Z,52
2023-04-15T07:40:29.666Z,25
2023-04-15T07:41:36.488Z,28
2023-04-15T07:42:43.271Z,31
2023-04-15T07:43:50.008Z,50
2023-04-15T07:44:56.884Z,52
2023-04-15T07:46:03.723Z,53
2023-04-15T07:47:10.626Z,41
2023-04-15T07:48:17.368Z,28
2023-04-15T07:49:24.123Z,33
2023-04-15T07:50:30.913Z,31
2023-04-15T07:51:37.694Z,44
2023-04-15T07:52:44.450Z,35
2023-04-15T07:53:51.234Z,25
2023-04-15T07:54:57.979Z,49
2023-04-15T07:56:04.848Z,34
2023-04-15T07:57:11.687Z,30
2023-04-15T07:58:18.463Z,30
2023-04-15T07:59:25.233Z,50
2023-04-15T08:00:32.030Z,37
2023-04-15T08:01:38.900Z,53
2023-04-15T08:02:45.736Z,49
2023-04-15T08:03:52.756Z,59
2023-04-15T08:04:59.286Z,43
2023-04-15T08:06:06.039Z,44
2023-04-15T08:07:12.873Z,43
2023-04-15T08:08:19.639Z,37
2023-04-15T08:09:26.405Z,46
2023-04-15T08:10:33.118Z,25
2023-04-15T08:11:39.926Z,25
2023-04-15T08:12:46.817Z,25
2023-04-15T08:13:53.638Z,45
2023-04-15T08:15:00.379Z,50
2023-04-15T08:16:07.281Z,63
2023-04-15T08:17:21.925Z,48
2023-04-15T08:18:28.662Z,62
2023-04-15T08:19:35.464Z,40
2023-04-15T08:20:42.221Z,29
2023-04-15T08:21:48.996Z,26
2023-04-15T08:22:55.688Z,55
2023-04-15T08:24:02.492Z,41
2023-04-15T08:25:09.418Z,28
2023-04-15T08:26:16.202Z,48
2023-04-15T08:27:23.047Z,42
2023-04-15T08:28:29.953Z,59
2023-04-15T08:29:36.729Z,46
2023-04-15T08:30:43.523Z,44
2023-04-15T08:31:50.384Z,30
2023-04-15T08:32:57.329Z,31
2023-04-15T08:34:04.063Z,51
2023-04-15T08:35:10.797Z,25
2023-04-15T08:36:17.631Z,33
2023-04-15T08:37:24.337Z,31
2023-04-15T08:38:31.175Z,48
2023-04-15T08:39:37.985Z,25
2023-04-15T08:40:53.218Z,48
2023-04-15T08:42:00.164Z,32
2023-04-15T08:43:06.938Z,25
2023-04-15T08:44:13.756Z,34
2023-04-15T08:45:20.560Z,36
2023-04-15T08:46:27.389Z,30
2023-04-15T08:47:37.310Z,25
2023-04-15T08:48:44.129Z,31
2023-04-15T08:49:50.961Z,37
2023-04-15T08:50:57.928Z,25
2023-04-15T08:52:04.813Z,33
2023-04-15T08:53:11.607Z,49
2023-04-15T08:54:18.378Z,34
2023-04-15T08:55:35.445Z,51
2023-04-15T08:56:47.271Z,35
2023-04-15T08:57:54.061Z,49
2023-04-15T08:59:01.172Z,40
2023-04-15T09:00:07.698Z,26
2023-04-15T09:01:15.019Z,41
2023-04-15T09:02:21.781Z,25
2023-04-15T09:03:28.533Z,27
2023-04-15T09:04:35.251Z,41
2023-04-15T09:05:42.051Z,34
2023-04-15T09:06:48.904Z,38
2023-04-15T09:07:55.763Z,34
2023-04-15T09:09:02.967Z,48
2023-04-15T09:10:09.378Z,38
2023-04-15T09:11:16.323Z,27
2023-04-15T09:12:22.975Z,51
2023-04-15T09:13:29.847Z,48
2023-04-15T09:14:36.615Z,26
2023-04-15T09:15:43.449Z,30
2023-04-15T09:16:50.581Z,35
2023-04-15T09:18:03.049Z,37
2023-04-15T09:19:09.798Z,43
2023-04-15T09:20:16.641Z,42
2023-04-15T09:21:23.515Z,30
2023-04-15T09:22:30.289Z,25
2023-04-15T09:23:37.078Z,32
2023-04-15T09:24:43.832Z,36
2023-04-15T09:25:50.731Z,31
2023-04-15T09:26:57.557Z,30
2023-04-15T09:28:04.293Z,40
2023-04-15T09:29:11.112Z,36
2023-04-15T09:30:17.911Z,26
2023-04-15T09:31:24.725Z,30
2023-04-15T09:32:34.547Z,44
2023-04-15T09:33:41.420Z,55
2023-04-15T09:34:53.246Z,53
2023-04-15T09:36:00.173Z,31
2023-04-15T09:37:07.648Z,26
2023-04-15T09:38:13.727Z,29
2023-04-15T09:39:20.512Z,31
2023-04-15T09:40:27.406Z,25
2023-04-15T09:41:34.170Z,41
2023-04-15T09:42:40.914Z,32
2023-04-15T09:43:57.825Z,54
2023-04-15T09:45:04.632Z,29
2023-04-15T09:46:11.579Z,42
2023-04-15T09:47:18.387Z,42
2023-04-15T09:48:30.249Z,60
2023-04-15T09:49:37.054Z,58
2023-04-15T09:50:43.717Z,56
2023-04-15T09:52:01.598Z,59
2023-04-15T09:52:57.382Z,60
2023-04-15T09:54:04.267Z,47
2023-04-15T09:55:11.120Z,42
2023-04-15T09:56:17.945Z,43
2023-04-15T09:57:24.722Z,49
2023-04-15T09:58:36.544Z,38
2023-04-15T09:59:43.368Z,43
2023-04-15T10:00:50.334Z,48
2023-04-15T10:01:57.140Z,50
2023-04-15T10:03:03.968Z,40
2023-04-15T10:04:10.764Z,40
2023-04-15T10:05:17.417Z,28
2023-04-15T10:06:24.263Z,31
2023-04-15T10:07:30.993Z,47
2023-04-15T10:08:37.767Z,40
2023-04-15T10:09:44.528Z,41
2023-04-15T10:10:53.859Z,37
2023-04-15T10:12:00.765Z,25
2023-04-15T10:13:07.747Z,31
2023-04-15T10:14:14.507Z,27
2023-04-15T10:15:21.222Z,29
2023-04-15T10:16:28.061Z,33
2023-04-15T10:17:34.716Z,25
2023-04-15T10:18:41.567Z,34
2023-04-15T10:19:48.421Z,32
2023-04-15T10:20:55.171Z,39
2023-04-15T10:22:01.926Z,36
2023-04-15T10:23:10.458Z,51
2023-04-15T10:24:15.506Z,43
2023-04-15T10:25:22.222Z,39
2023-04-15T10:26:29.029Z,35
2023-04-15T10:27:35.782Z,30
2023-04-15T10:28:42.582Z,39
2023-04-15T10:29:49.422Z,35
2023-04-15T10:30:56.243Z,50
2023-04-15T10:32:03.019Z,36
2023-04-15T10:33:09.822Z,54
2023-04-15T10:34:16.587Z,42
2023-04-15T10:35:23.506Z,25
2023-04-15T10:36:30.249Z,25
2023-04-15T10:37:37.020Z,25
2023-04-15T10:38:43.874Z,36
2023-04-15T10:39:50.680Z,34
2023-04-15T10:40:57.474Z,26
2023-04-15T10:42:14.349Z,29
2023-04-15T10:43:24.181Z,37
2023-04-15T10:44:30.969Z,41
2023-04-15T10:45:37.825Z,43
2023-04-15T10:46:44.788Z,28
2023-04-15T10:47:51.677Z,25
2023-04-15T10:48:58.300Z,48
2023-04-15T10:50:05.069Z,54
2023-04-15T10:51:12.067Z,25
2023-04-15T10:52:18.842Z,40
2023-04-15T10:53:28.270Z,46
2023-04-15T10:54:35.158Z,41
2023-04-15T10:55:41.933Z,39
2023-04-15T10:56:48.658Z,29
2023-04-15T10:58:03.436Z,44
2023-04-15T10:59:10.181Z,76
2023-04-15T11:00:16.938Z,71
2023-04-15T11:01:23.853Z,48
2023-04-15T11:02:40.761Z,42
2023-04-15T11:03:47.575Z,54
2023-04-15T11:04:54.299Z,50
2023-04-15T11:06:03.876Z,50
2023-04-15T11:07:10.787Z,52
2023-04-15T11:08:17.497Z,48
2023-04-15T11:09:24.234Z,44
2023-04-15T11:10:36.051Z,35
2023-04-15T11:11:44.040Z,32
2023-04-15T11:12:59.835Z,50
2023-04-15T11:14:09.205Z,39
2023-04-15T11:15:18.993Z,46
2023-04-15T11:16:33.541Z,44
2023-04-15T11:17:46.473Z,27
2023-04-15T11:18:52.117Z,25
2023-04-15T11:19:58.924Z,32
2023-04-15T11:21:05.860Z,32
2023-04-15T11:22:12.695Z,28
2023-04-15T11:23:19.447Z,35
2023-04-15T11:24:36.325Z,36
2023-04-15T11:25:51.023Z,46
2023-04-15T11:27:00.491Z,25
2023-04-15T11:28:07.300Z,57
2023-04-15T11:29:14.156Z,47
2023-04-15T11:30:20.960Z,41
2023-04-15T11:31:30.906Z,44
2023-04-15T11:32:37.701Z,54
2023-04-15T11:33:47.203Z,37
2023-04-15T11:34:59.081Z,44
2023-04-15T11:36:05.856Z,27
2023-04-15T11:37:12.693Z,30
2023-04-15T11:38:19.458Z,32
2023-04-15T11:39:27.559Z,41
2023-04-15T11:40:34.367Z,35
2023-04-15T11:41:41.123Z,34
2023-04-15T11:42:50.062Z,41
2023-04-15T11:44:04.979Z,27
2023-04-15T11:45:11.690Z,42
2023-04-15T11:46:18.689Z,50
2023-04-15T11:47:25.558Z,42
2023-04-15T11:48:32.469Z,33
2023-04-15T11:49:39.260Z,37
2023-04-15T11:50:46.212Z,48
2023-04-15T11:51:58.077Z,34
2023-04-15T11:53:06.968Z,36
2023-04-15T11:54:11.647Z,45
2023-04-15T11:55:18.483Z,52
2023-04-15T11:56:25.222Z,44
2023-04-15T11:57:32.057Z,25
2023-04-15T11:58:38.927Z,25
2023-04-15T11:59:46.262Z,38
2023-04-15T12:00:52.561Z,40
2023-04-15T12:01:59.448Z,46
2023-04-15T12:03:06.286Z,49
2023-04-15T12:04:24.441Z,52
2023-04-15T12:05:27.709Z,28
2023-04-15T12:06:34.481Z,36
2023-04-15T12:07:41.388Z,37
2023-04-15T12:08:58.412Z,37
2023-04-15T12:10:05.476Z,25
2023-04-15T12:11:12.509Z,31
2023-04-15T12:12:19.311Z,39
2023-04-15T12:13:26.091Z,45
2023-04-15T12:14:32.966Z,43
2023-04-15T12:15:39.765Z,28
2023-04-15T12:16:48.530Z,41
2023-04-15T12:17:53.446Z,36
2023-04-15T12:19:00.297Z,27
2023-04-15T12:20:14.803Z,45
2023-04-15T12:21:24.473Z,52
2023-04-15T12:22:31.388Z,48
2023-04-15T12:23:38.236Z,32
2023-04-15T12:24:52.940Z,33
2023-04-15T12:25:59.908Z,37
2023-04-15T12:27:06.720Z,33
2023-04-15T12:28:13.448Z,34
2023-04-15T12:29:20.225Z,55
2023-04-15T12:30:29.892Z,50
2023-04-15T12:31:36.728Z,65
2023-04-15T12:32:53.658Z,46
2023-04-15T12:34:00.366Z,44
2023-04-15T12:35:07.166Z,59
2023-04-15T12:36:14.009Z,49
2023-04-15T12:37:20.803Z,58
2023-04-15T12:38:27.563Z,56
2023-04-15T12:39:34.348Z,44
2023-04-15T12:40:43.822Z,46
2023-04-15T12:41:50.583Z,49
2023-04-15T12:42:57.409Z,52
2023-04-15T12:44:04.571Z,48
2023-04-15T12:45:11.142Z,43
2023-04-15T12:46:18.051Z,48
2023-04-15T12:47:24.861Z,42
2023-04-15T12:48:31.663Z,34
2023-04-15T12:49:38.550Z,33
2023-04-15T12:50:45.256Z,42
2023-04-15T12:51:52.056Z,44
2023-04-15T12:52:58.806Z,37
2023-04-15T12:54:05.792Z,25
2023-04-15T12:55:12.371Z,36
2023-04-15T12:56:19.205Z,44
2023-04-15T12:57:25.972Z,44
2023-04-15T12:58:32.802Z,43
2023-04-15T12:59:39.676Z,57
2023-04-15T13:00:46.435Z,55
2023-04-15T13:01:53.422Z,45
2023-04-15T13:03:00.134Z,49
2023-04-15T13:04:07.056Z,34
2023-04-15T13:05:13.903Z,27
2023-04-15T13:06:20.648Z,32
2023-04-15T13:07:27.403Z,61
2023-04-15T13:08:34.272Z,60
2023-04-15T13:09:41.038Z,52
2023-04-15T13:10:47.835Z,43
2023-04-15T13:11:54.855Z,25
2023-04-15T13:13:01.427Z,32
2023-04-15T13:14:08.239Z,25
2023-04-15T13:15:17.605Z,63
2023-04-15T13:16:24.489Z,55
2023-04-15T13:17:31.310Z,33
2023-04-15T13:18:38.038Z,30
2023-04-15T13:19:44.872Z,37
2023-04-15T13:20:51.632Z,33
2023-04-15T13:21:58.451Z,41
2023-04-15T13:23:05.350Z,47
2023-04-15T13:24:12.169Z,39
2023-04-15T13:25:18.915Z,38
2023-04-15T13:26:25.747Z,45
2023-04-15T13:27:32.538Z,49
2023-04-15T13:28:39.373Z,44
2023-04-15T13:29:46.152Z,31
2023-04-15T13:30:52.902Z,34
2023-04-15T13:31:59.744Z,36
2023-04-15T13:33:06.472Z,40
2023-04-15T13:34:13.332Z,52
2023-04-15T13:35:20.163Z,35
2023-04-15T13:36:26.893Z,46
2023-04-15T13:37:33.643Z,53
2023-04-15T13:38:40.433Z,57
2023-04-15T13:39:47.264Z,52
2023-04-15T13:40:54.056Z,64
2023-04-15T13:42:00.838Z,45
2023-04-15T13:43:07.716Z,40
2023-04-15T13:44:14.499Z,52
2023-04-15T13:45:21.407Z,52
2023-04-15T13:46:28.212Z,73
2023-04-15T13:47:35.024Z,56
2023-04-15T13:48:41.908Z,41
2023-04-15T13:49:48.676Z,51
2023-04-15T13:50:55.527Z,45
2023-04-15T13:52:02.307Z,43
2023-04-15T13:53:09.185Z,47
2023-04-15T13:54:15.984Z,39
2023-04-15T13:55:24.619Z,40
2023-04-15T13:56:29.583Z,28
2023-04-15T13:57:36.487Z,41
2023-04-15T13:58:43.168Z,51
2023-04-15T13:59:49.935Z,48
2023-04-15T14:00:56.922Z,45
2023-04-15T14:02:03.798Z,48
2023-04-15T14:03:10.603Z,42
2023-04-15T14:04:17.438Z,34
2023-04-15T14:05:24.084Z,43
2023-04-15T14:06:30.910Z,47
2023-04-15T14:07:37.898Z,39
2023-04-15T14:08:44.637Z,30
2023-04-15T14:09:51.481Z,33
2023-04-15T14:10:58.276Z,39
2023-04-15T14:12:05.100Z,38
2023-04-15T14:13:11.975Z,27
2023-04-15T14:14:18.742Z,31
2023-04-15T14:15:25.567Z,38
2023-04-15T14:16:32.976Z,39
2023-04-15T14:17:39.686Z,39
2023-04-15T14:18:46.558Z,33
2023-04-15T14:19:53.388Z,38
2023-04-15T14:21:00.199Z,25
2023-04-15T14:22:06.976Z,25
2023-04-15T14:23:13.758Z,30
2023-04-15T14:24:20.567Z,41
2023-04-15T14:25:33.547Z,34
2023-04-15T14:26:34.262Z,41
2023-04-15T14:27:41.043Z,45
2023-04-15T14:28:47.812Z,27
2023-04-15T14:29:54.753Z,34
2023-04-15T14:31:01.609Z,47
2023-04-15T14:32:11.748Z,39
2023-04-15T14:33:15.222Z,42
2023-04-15T14:34:22.055Z,43
2023-04-15T14:35:28.859Z,44
2023-04-15T14:36:35.671Z,49
2023-04-15T14:37:42.387Z,50
2023-04-15T14:38:49.161Z,50
2023-04-15T14:39:55.957Z,47
2023-04-15T14:41:02.856Z,50
2023-04-15T14:42:09.740Z,39
2023-04-15T14:43:16.483Z,36
2023-04-15T14:44:23.246Z,34
2023-04-15T14:45:30.045Z,37
2023-04-15T14:46:36.928Z,30
2023-04-15T14:47:43.774Z,37
2023-04-15T14:48:50.564Z,45
2023-04-15T14:49:57.368Z,40
2023-04-15T14:51:04.123Z,53
2023-04-15T14:52:10.920Z,56
2023-04-15T14:53:17.828Z,53
2023-04-15T14:54:24.630Z,50
2023-04-15T14:55:31.387Z,61
2023-04-15T14:56:38.129Z,62
2023-04-15T14:57:44.914Z,53
2023-04-15T14:58:51.681Z,59
2023-04-15T14:59:58.452Z,54
2023-04-15T15:01:05.306Z,67
2023-04-15T15:02:14.637Z,63
2023-04-15T15:03:19.014Z,64
2023-04-15T15:04:25.895Z,64
2023-04-15T15:05:32.724Z,66
2023-04-15T15:06:39.438Z,62
2023-04-15T15:07:46.229Z,64
2023-04-15T15:08:53.094Z,73
2023-04-15T15:09:59.968Z,73
2023-04-15T15:11:06.844Z,68
2023-04-15T15:12:13.644Z,70
2023-04-15T15:13:20.461Z,67
2023-04-15T15:14:27.171Z,68
2023-04-15T15:15:34.071Z,67
2023-04-15T15:16:40.840Z,59
2023-04-15T15:17:47.730Z,71
2023-04-15T15:18:54.447Z,77
2023-04-15T15:20:01.237Z,73
2023-04-15T15:21:08.266Z,79
2023-04-15T15:22:15.174Z,85
2023-04-15T15:23:21.957Z,81
2023-04-15T15:24:28.702Z,78
2023-04-15T15:25:35.507Z,80
2023-04-15T15:26:42.363Z,71
2023-04-15T15:27:49.172Z,82
2023-04-15T15:28:55.940Z,95
2023-04-15T15:30:02.902Z,91
2023-04-15T15:31:09.984Z,85
2023-04-15T15:32:16.846Z,87
2023-04-15T15:33:23.718Z,93
2023-04-15T15:34:30.468Z,94
2023-04-15T15:35:37.258Z,88
2023-04-15T15:36:44.033Z,90
2023-04-15T15:37:50.827Z,100
2023-04-15T15:38:58.539Z,90
2023-04-15T15:40:04.494Z,103
2023-04-15T15:41:11.657Z,104
2023-04-15T15:42:18.431Z,96
2023-04-15T15:43:25.207Z,81
2023-04-15T15:44:33.594Z,88
2023-04-15T15:45:38.771Z,88
2023-04-15T15:46:45.606Z,87
2023-04-15T15:47:52.712Z,86
2023-04-15T15:48:59.674Z,82
2023-04-15T15:50:06.554Z,88
2023-04-15T15:51:13.333Z,79
2023-04-15T15:52:20.102Z,73
2023-04-15T15:53:26.851Z,88
2023-04-15T15:54:33.682Z,101
2023-04-15T15:55:40.470Z,110